sensor_id;sensor_type;location;lat;lon;timestamp;P1;durP1;ratioP1;P2;durP2;ratioP2
31734;SDS011;18313;48.518;9.124;2022-10-04T00:02:05;6.35;;;4.60;;
31734;SDS011;18313;48.518;9.124;2022-10-04T00:05:04;13.52;;;4.40;;
31734;SDS011;18313;48.518;9.124;2022-10-04T00:07:52;5.68;;;4.13;;
31734;SDS011;18313;48.518;9.124;2022-10-04T00:10:41;7.15;;;4.50;;
31734;SDS011;18313;48.518;9.124;2022-10-04T00:13:28;9.18;;;4.53;;
31734;SDS011;18313;48.518;9.124;2022-10-04T00:16:19;6.55;;;3.90;;
31734;SDS011;18313;48.518;9.124;2022-10-04T00:31:12;5.20;;;4.13;;
31734;SDS011;18313;48.518;9.124;2022-10-04T00:37:31;5.30;;;3.75;;
31734;SDS011;18313;48.518;9.124;2022-10-04T00:43:55;5.45;;;4.03;;
31734;SDS011;18313;48.518;9.124;2022-10-04T00:46:43;5.25;;;4.00;;
31734;SDS011;18313;48.518;9.124;2022-10-04T00:49:31;5.20;;;3.90;;
31734;SDS011;18313;48.518;9.124;2022-10-04T00:52:25;4.65;;;3.75;;
31734;SDS011;18313;48.518;9.124;2022-10-04T00:55:18;5.50;;;3.88;;
31734;SDS011;18313;48.518;9.124;2022-10-04T00:58:19;6.00;;;4.72;;
31734;SDS011;18313;48.518;9.124;2022-10-04T01:01:12;5.25;;;4.20;;
31734;SDS011;18313;48.518;9.124;2022-10-04T01:04:01;11.32;;;4.00;;
31734;SDS011;18313;48.518;9.124;2022-10-04T01:06:49;5.03;;;4.00;;
31734;SDS011;18313;48.518;9.124;2022-10-04T01:09:37;7.05;;;4.00;;
31734;SDS011;18313;48.518;9.124;2022-10-04T01:12:32;4.22;;;3.80;;
31734;SDS011;18313;48.518;9.124;2022-10-04T01:22:12;13.90;;;3.70;;
31734;SDS011;18313;48.518;9.124;2022-10-04T01:25:02;9.55;;;4.22;;
31734;SDS011;18313;48.518;9.124;2022-10-04T01:27:48;4.72;;;3.80;;
31734;SDS011;18313;48.518;9.124;2022-10-04T01:30:34;6.00;;;4.50;;
31734;SDS011;18313;48.518;9.124;2022-10-04T01:33:19;29.60;;;4.75;;
31734;SDS011;18313;48.518;9.124;2022-10-04T01:36:05;5.28;;;4.40;;
31734;SDS011;18313;48.518;9.124;2022-10-04T01:38:51;6.05;;;4.53;;
31734;SDS011;18313;48.518;9.124;2022-10-04T01:47:59;5.47;;;4.38;;
31734;SDS011;18313;48.518;9.124;2022-10-04T01:50:57;5.53;;;4.63;;
31734;SDS011;18313;48.518;9.124;2022-10-04T01:53:59;6.60;;;5.10;;
31734;SDS011;18313;48.518;9.124;2022-10-04T01:56:56;6.18;;;4.93;;
31734;SDS011;18313;48.518;9.124;2022-10-04T01:59:58;5.75;;;4.70;;
31734;SDS011;18313;48.518;9.124;2022-10-04T02:02:50;5.97;;;4.75;;
31734;SDS011;18313;48.518;9.124;2022-10-04T02:05:46;38.00;;;5.60;;
31734;SDS011;18313;48.518;9.124;2022-10-04T02:08:39;11.88;;;5.32;;
31734;SDS011;18313;48.518;9.124;2022-10-04T02:14:16;9.23;;;4.72;;
31734;SDS011;18313;48.518;9.124;2022-10-04T02:17:10;8.88;;;4.63;;
31734;SDS011;18313;48.518;9.124;2022-10-04T02:19:56;6.30;;;4.68;;
31734;SDS011;18313;48.518;9.124;2022-10-04T02:22:45;67.75;;;4.95;;
31734;SDS011;18313;48.518;9.124;2022-10-04T02:25:47;15.60;;;4.10;;
31734;SDS011;18313;48.518;9.124;2022-10-04T02:28:32;16.58;;;4.32;;
31734;SDS011;18313;48.518;9.124;2022-10-04T02:31:22;6.60;;;4.25;;
31734;SDS011;18313;48.518;9.124;2022-10-04T02:34:27;5.85;;;4.20;;
31734;SDS011;18313;48.518;9.124;2022-10-04T02:37:12;5.85;;;4.78;;
31734;SDS011;18313;48.518;9.124;2022-10-04T02:40:07;26.95;;;5.30;;
31734;SDS011;18313;48.518;9.124;2022-10-04T02:42:57;36.85;;;5.45;;
31734;SDS011;18313;48.518;9.124;2022-10-04T02:49:14;5.68;;;4.53;;
31734;SDS011;18313;48.518;9.124;2022-10-04T02:52:09;58.72;;;4.63;;
31734;SDS011;18313;48.518;9.124;2022-10-04T02:55:03;18.45;;;4.63;;
31734;SDS011;18313;48.518;9.124;2022-10-04T02:57:50;5.70;;;4.30;;
31734;SDS011;18313;48.518;9.124;2022-10-04T03:00:43;6.78;;;4.25;;
31734;SDS011;18313;48.518;9.124;2022-10-04T03:03:31;6.20;;;4.20;;
31734;SDS011;18313;48.518;9.124;2022-10-04T03:06:21;31.55;;;3.97;;
31734;SDS011;18313;48.518;9.124;2022-10-04T03:09:12;30.25;;;3.88;;
31734;SDS011;18313;48.518;9.124;2022-10-04T03:11:58;7.90;;;3.95;;
31734;SDS011;18313;48.518;9.124;2022-10-04T03:14:44;22.05;;;3.78;;
31734;SDS011;18313;48.518;9.124;2022-10-04T03:17:30;28.23;;;3.75;;
31734;SDS011;18313;48.518;9.124;2022-10-04T03:20:15;10.55;;;3.67;;
31734;SDS011;18313;48.518;9.124;2022-10-04T03:23:05;30.35;;;3.30;;
31734;SDS011;18313;48.518;9.124;2022-10-04T03:25:59;5.30;;;3.70;;
31734;SDS011;18313;48.518;9.124;2022-10-04T03:28:58;4.78;;;3.47;;
31734;SDS011;18313;48.518;9.124;2022-10-04T03:31:48;5.30;;;3.95;;
31734;SDS011;18313;48.518;9.124;2022-10-04T03:34:36;4.30;;;3.35;;
31734;SDS011;18313;48.518;9.124;2022-10-04T03:37:23;14.32;;;3.42;;
31734;SDS011;18313;48.518;9.124;2022-10-04T03:40:10;15.68;;;3.60;;
31734;SDS011;18313;48.518;9.124;2022-10-04T03:42:56;3.90;;;3.08;;
31734;SDS011;18313;48.518;9.124;2022-10-04T03:45:44;4.22;;;3.17;;
31734;SDS011;18313;48.518;9.124;2022-10-04T03:48:34;12.60;;;3.25;;
31734;SDS011;18313;48.518;9.124;2022-10-04T03:51:25;4.30;;;3.15;;
31734;SDS011;18313;48.518;9.124;2022-10-04T03:54:11;4.32;;;3.10;;
31734;SDS011;18313;48.518;9.124;2022-10-04T03:57:02;11.48;;;3.20;;
31734;SDS011;18313;48.518;9.124;2022-10-04T03:59:49;21.30;;;4.50;;
31734;SDS011;18313;48.518;9.124;2022-10-04T04:02:41;11.98;;;4.85;;
31734;SDS011;18313;48.518;9.124;2022-10-04T04:05:31;24.55;;;4.43;;
31734;SDS011;18313;48.518;9.124;2022-10-04T04:08:32;9.38;;;3.92;;
31734;SDS011;18313;48.518;9.124;2022-10-04T04:11:21;5.95;;;3.80;;
31734;SDS011;18313;48.518;9.124;2022-10-04T04:14:12;12.82;;;3.70;;
31734;SDS011;18313;48.518;9.124;2022-10-04T04:17:17;5.28;;;3.55;;
31734;SDS011;18313;48.518;9.124;2022-10-04T04:20:03;23.35;;;4.20;;
31734;SDS011;18313;48.518;9.124;2022-10-04T04:23:03;34.33;;;4.18;;
31734;SDS011;18313;48.518;9.124;2022-10-04T04:25:50;10.18;;;3.22;;
31734;SDS011;18313;48.518;9.124;2022-10-04T04:28:40;5.07;;;3.15;;
31734;SDS011;18313;48.518;9.124;2022-10-04T04:34:31;4.18;;;3.20;;
31734;SDS011;18313;48.518;9.124;2022-10-04T04:37:28;5.05;;;3.08;;
31734;SDS011;18313;48.518;9.124;2022-10-04T04:40:18;68.57;;;4.68;;
31734;SDS011;18313;48.518;9.124;2022-10-04T04:43:10;55.90;;;4.50;;
31734;SDS011;18313;48.518;9.124;2022-10-04T04:46:00;8.70;;;4.75;;
31734;SDS011;18313;48.518;9.124;2022-10-04T04:49:06;4.28;;;3.47;;
31734;SDS011;18313;48.518;9.124;2022-10-04T04:51:54;8.68;;;4.20;;
31734;SDS011;18313;48.518;9.124;2022-10-04T04:54:42;5.00;;;3.30;;
31734;SDS011;18313;48.518;9.124;2022-10-04T04:57:30;32.53;;;3.97;;
31734;SDS011;18313;48.518;9.124;2022-10-04T05:00:18;6.97;;;3.70;;
31734;SDS011;18313;48.518;9.124;2022-10-04T05:03:16;4.85;;;3.10;;
31734;SDS011;18313;48.518;9.124;2022-10-04T05:06:25;17.63;;;3.33;;
31734;SDS011;18313;48.518;9.124;2022-10-04T05:12:25;99.18;;;5.30;;
31734;SDS011;18313;48.518;9.124;2022-10-04T05:15:11;23.27;;;3.70;;
31734;SDS011;18313;48.518;9.124;2022-10-04T05:17:56;24.30;;;3.80;;
31734;SDS011;18313;48.518;9.124;2022-10-04T05:20:44;12.27;;;3.65;;
31734;SDS011;18313;48.518;9.124;2022-10-04T05:23:33;68.55;;;4.78;;
31734;SDS011;18313;48.518;9.124;2022-10-04T05:26:21;55.22;;;4.88;;
31734;SDS011;18313;48.518;9.124;2022-10-04T05:29:12;38.83;;;4.05;;
31734;SDS011;18313;48.518;9.124;2022-10-04T05:47:29;5.15;;;3.88;;
31734;SDS011;18313;48.518;9.124;2022-10-04T05:50:16;6.28;;;4.15;;
31734;SDS011;18313;48.518;9.124;2022-10-04T05:53:30;4.72;;;3.63;;
31734;SDS011;18313;48.518;9.124;2022-10-04T05:56:27;7.40;;;3.45;;
31734;SDS011;18313;48.518;9.124;2022-10-04T05:59:35;5.60;;;3.80;;
31734;SDS011;18313;48.518;9.124;2022-10-04T06:08:57;7.40;;;3.63;;
31734;SDS011;18313;48.518;9.124;2022-10-04T06:11:58;4.85;;;3.60;;
31734;SDS011;18313;48.518;9.124;2022-10-04T06:15:04;5.07;;;3.90;;
31734;SDS011;18313;48.518;9.124;2022-10-04T06:18:05;5.65;;;4.03;;
31734;SDS011;18313;48.518;9.124;2022-10-04T06:27:12;4.43;;;3.55;;
31734;SDS011;18313;48.518;9.124;2022-10-04T06:30:06;23.67;;;3.90;;
31734;SDS011;18313;48.518;9.124;2022-10-04T06:33:41;8.52;;;3.72;;
31734;SDS011;18313;48.518;9.124;2022-10-04T07:07:34;7.15;;;4.78;;
31734;SDS011;18313;48.518;9.124;2022-10-04T07:10:30;6.85;;;4.10;;
31734;SDS011;18313;48.518;9.124;2022-10-04T07:16:31;6.80;;;4.43;;
31734;SDS011;18313;48.518;9.124;2022-10-04T07:19:37;6.00;;;4.40;;
31734;SDS011;18313;48.518;9.124;2022-10-04T07:25:31;5.85;;;3.95;;
31734;SDS011;18313;48.518;9.124;2022-10-04T07:28:22;7.80;;;4.05;;
31734;SDS011;18313;48.518;9.124;2022-10-04T07:31:32;6.10;;;4.25;;
31734;SDS011;18313;48.518;9.124;2022-10-04T07:34:24;5.35;;;4.07;;
31734;SDS011;18313;48.518;9.124;2022-10-04T07:37:12;5.90;;;4.05;;
31734;SDS011;18313;48.518;9.124;2022-10-04T07:42:46;6.65;;;4.80;;
31734;SDS011;18313;48.518;9.124;2022-10-04T07:45:37;6.13;;;4.35;;
31734;SDS011;18313;48.518;9.124;2022-10-04T07:48:24;7.53;;;5.40;;
31734;SDS011;18313;48.518;9.124;2022-10-04T07:51:14;6.43;;;4.72;;
31734;SDS011;18313;48.518;9.124;2022-10-04T07:54:35;5.78;;;4.47;;
31734;SDS011;18313;48.518;9.124;2022-10-04T07:57:20;6.20;;;4.45;;
31734;SDS011;18313;48.518;9.124;2022-10-04T08:00:15;7.88;;;4.47;;
31734;SDS011;18313;48.518;9.124;2022-10-04T08:05:53;6.40;;;4.47;;
31734;SDS011;18313;48.518;9.124;2022-10-04T08:11:48;7.43;;;4.68;;
31734;SDS011;18313;48.518;9.124;2022-10-04T08:18:22;6.78;;;4.80;;
31734;SDS011;18313;48.518;9.124;2022-10-04T08:21:15;9.27;;;4.82;;
31734;SDS011;18313;48.518;9.124;2022-10-04T08:27:34;8.98;;;6.00;;
31734;SDS011;18313;48.518;9.124;2022-10-04T08:37:46;11.65;;;6.32;;
31734;SDS011;18313;48.518;9.124;2022-10-04T08:47:14;9.30;;;5.28;;
31734;SDS011;18313;48.518;9.124;2022-10-04T09:09:41;6.80;;;4.65;;
31734;SDS011;18313;48.518;9.124;2022-10-04T09:15:58;7.38;;;4.80;;
31734;SDS011;18313;48.518;9.124;2022-10-04T09:30:58;7.63;;;4.22;;
31734;SDS011;18313;48.518;9.124;2022-10-04T09:34:05;7.22;;;4.25;;
31734;SDS011;18313;48.518;9.124;2022-10-04T09:37:19;6.45;;;4.25;;
31734;SDS011;18313;48.518;9.124;2022-10-04T09:44:11;6.53;;;4.00;;
31734;SDS011;18313;48.518;9.124;2022-10-04T09:47:28;7.90;;;4.00;;
31734;SDS011;18313;48.518;9.124;2022-10-04T09:50:37;7.82;;;3.65;;
31734;SDS011;18313;48.518;9.124;2022-10-04T09:57:04;6.38;;;3.63;;
31734;SDS011;18313;48.518;9.124;2022-10-04T10:00:05;8.13;;;3.40;;
31734;SDS011;18313;48.518;9.124;2022-10-04T10:09:35;6.25;;;3.47;;
31734;SDS011;18313;48.518;9.124;2022-10-04T10:13:05;6.15;;;4.00;;
31734;SDS011;18313;48.518;9.124;2022-10-04T10:19:24;9.60;;;4.13;;
31734;SDS011;18313;48.518;9.124;2022-10-04T10:22:26;8.13;;;3.97;;
31734;SDS011;18313;48.518;9.124;2022-10-04T10:25:35;8.07;;;3.92;;
31734;SDS011;18313;48.518;9.124;2022-10-04T10:31:49;7.32;;;3.90;;
31734;SDS011;18313;48.518;9.124;2022-10-04T10:38:42;5.55;;;2.97;;
31734;SDS011;18313;48.518;9.124;2022-10-04T10:41:36;8.27;;;3.13;;
31734;SDS011;18313;48.518;9.124;2022-10-04T10:48:08;7.50;;;3.50;;
31734;SDS011;18313;48.518;9.124;2022-10-04T10:51:00;6.22;;;3.35;;
31734;SDS011;18313;48.518;9.124;2022-10-04T11:00:19;5.55;;;2.85;;
31734;SDS011;18313;48.518;9.124;2022-10-04T11:06:36;5.13;;;2.60;;
31734;SDS011;18313;48.518;9.124;2022-10-04T11:19:01;8.20;;;2.40;;
31734;SDS011;18313;48.518;9.124;2022-10-04T11:58:42;6.28;;;2.67;;
31734;SDS011;18313;48.518;9.124;2022-10-04T12:02:05;5.70;;;2.40;;
31734;SDS011;18313;48.518;9.124;2022-10-04T12:05:22;6.15;;;2.30;;
31734;SDS011;18313;48.518;9.124;2022-10-04T12:21:50;4.85;;;2.20;;
31734;SDS011;18313;48.518;9.124;2022-10-04T12:36:31;7.10;;;2.28;;
31734;SDS011;18313;48.518;9.124;2022-10-04T12:55:13;5.15;;;2.35;;
31734;SDS011;18313;48.518;9.124;2022-10-04T12:58:04;7.65;;;3.08;;
31734;SDS011;18313;48.518;9.124;2022-10-04T13:01:12;5.20;;;2.13;;
31734;SDS011;18313;48.518;9.124;2022-10-04T13:07:03;4.50;;;2.33;;
31734;SDS011;18313;48.518;9.124;2022-10-04T13:28:57;5.47;;;1.90;;
31734;SDS011;18313;48.518;9.124;2022-10-04T13:32:01;4.40;;;1.77;;
31734;SDS011;18313;48.518;9.124;2022-10-04T13:40:54;3.83;;;1.70;;
31734;SDS011;18313;48.518;9.124;2022-10-04T13:52:38;4.60;;;1.88;;
31734;SDS011;18313;48.518;9.124;2022-10-04T13:56:00;5.03;;;1.75;;
31734;SDS011;18313;48.518;9.124;2022-10-04T14:06:15;4.32;;;1.80;;
31734;SDS011;18313;48.518;9.124;2022-10-04T14:12:35;5.07;;;1.67;;
31734;SDS011;18313;48.518;9.124;2022-10-04T14:50:22;3.42;;;1.50;;
31734;SDS011;18313;48.518;9.124;2022-10-04T14:56:43;2.80;;;1.40;;
31734;SDS011;18313;48.518;9.124;2022-10-04T15:00:08;4.38;;;1.60;;
31734;SDS011;18313;48.518;9.124;2022-10-04T15:09:05;3.33;;;1.48;;
31734;SDS011;18313;48.518;9.124;2022-10-04T15:12:21;4.07;;;1.40;;
31734;SDS011;18313;48.518;9.124;2022-10-04T15:21:52;3.33;;;1.50;;
31734;SDS011;18313;48.518;9.124;2022-10-04T15:24:47;4.10;;;1.50;;
31734;SDS011;18313;48.518;9.124;2022-10-04T15:27:37;6.90;;;2.40;;
31734;SDS011;18313;48.518;9.124;2022-10-04T15:31:18;3.88;;;1.60;;
31734;SDS011;18313;48.518;9.124;2022-10-04T15:33:43;3.50;;;1.50;;
31734;SDS011;18313;48.518;9.124;2022-10-04T15:54:46;3.80;;;1.83;;
31734;SDS011;18313;48.518;9.124;2022-10-04T16:10:17;5.28;;;2.30;;
31734;SDS011;18313;48.518;9.124;2022-10-04T16:13:17;6.05;;;2.10;;
31734;SDS011;18313;48.518;9.124;2022-10-04T16:22:17;6.25;;;2.30;;
31734;SDS011;18313;48.518;9.124;2022-10-04T16:37:35;8.07;;;2.53;;
31734;SDS011;18313;48.518;9.124;2022-10-04T16:40:29;4.95;;;2.00;;
31734;SDS011;18313;48.518;9.124;2022-10-04T16:43:31;3.35;;;1.85;;
31734;SDS011;18313;48.518;9.124;2022-10-04T16:46:28;5.93;;;2.40;;
31734;SDS011;18313;48.518;9.124;2022-10-04T16:49:22;7.15;;;2.28;;
31734;SDS011;18313;48.518;9.124;2022-10-04T16:55:16;5.82;;;2.60;;
31734;SDS011;18313;48.518;9.124;2022-10-04T17:04:21;6.00;;;3.45;;
31734;SDS011;18313;48.518;9.124;2022-10-04T17:07:32;5.35;;;2.60;;
31734;SDS011;18313;48.518;9.124;2022-10-04T17:13:48;4.93;;;2.67;;
31734;SDS011;18313;48.518;9.124;2022-10-04T17:23:40;4.80;;;2.50;;
31734;SDS011;18313;48.518;9.124;2022-10-04T17:29:48;5.38;;;2.72;;
31734;SDS011;18313;48.518;9.124;2022-10-04T17:39:32;5.85;;;2.95;;
31734;SDS011;18313;48.518;9.124;2022-10-04T17:42:42;7.07;;;3.00;;
31734;SDS011;18313;48.518;9.124;2022-10-04T17:48:30;5.82;;;2.80;;
31734;SDS011;18313;48.518;9.124;2022-10-04T17:51:48;6.75;;;2.85;;
31734;SDS011;18313;48.518;9.124;2022-10-04T17:54:57;9.25;;;3.13;;
31734;SDS011;18313;48.518;9.124;2022-10-04T17:58:10;8.80;;;3.30;;
31734;SDS011;18313;48.518;9.124;2022-10-04T18:04:07;8.88;;;3.17;;
31734;SDS011;18313;48.518;9.124;2022-10-04T18:07:08;8.82;;;4.10;;
31734;SDS011;18313;48.518;9.124;2022-10-04T18:10:37;7.60;;;3.83;;
31734;SDS011;18313;48.518;9.124;2022-10-04T18:13:29;6.90;;;3.63;;
31734;SDS011;18313;48.518;9.124;2022-10-04T18:16:21;7.20;;;3.30;;
31734;SDS011;18313;48.518;9.124;2022-10-04T18:19:36;7.97;;;3.22;;
31734;SDS011;18313;48.518;9.124;2022-10-04T18:22:24;5.35;;;3.00;;
31734;SDS011;18313;48.518;9.124;2022-10-04T18:25:14;6.55;;;3.28;;
31734;SDS011;18313;48.518;9.124;2022-10-04T18:30:55;10.73;;;7.70;;
31734;SDS011;18313;48.518;9.124;2022-10-04T18:33:45;14.43;;;11.32;;
31734;SDS011;18313;48.518;9.124;2022-10-04T18:37:36;15.48;;;10.80;;
31734;SDS011;18313;48.518;9.124;2022-10-04T18:40:17;11.50;;;8.40;;
31734;SDS011;18313;48.518;9.124;2022-10-04T18:43:25;10.63;;;7.00;;
31734;SDS011;18313;48.518;9.124;2022-10-04T18:46:15;9.52;;;4.68;;
31734;SDS011;18313;48.518;9.124;2022-10-04T18:49:56;6.70;;;4.30;;
31734;SDS011;18313;48.518;9.124;2022-10-04T18:55:48;7.40;;;3.30;;
31734;SDS011;18313;48.518;9.124;2022-10-04T19:05:14;7.47;;;3.55;;
31734;SDS011;18313;48.518;9.124;2022-10-04T19:11:08;4.90;;;3.28;;
31734;SDS011;18313;48.518;9.124;2022-10-04T19:26:08;8.48;;;4.90;;
31734;SDS011;18313;48.518;9.124;2022-10-04T19:32:51;12.10;;;6.67;;
31734;SDS011;18313;48.518;9.124;2022-10-04T19:36:04;23.58;;;11.48;;
31734;SDS011;18313;48.518;9.124;2022-10-04T19:42:33;42.03;;;17.38;;
31734;SDS011;18313;48.518;9.124;2022-10-04T19:45:58;24.17;;;12.48;;
31734;SDS011;18313;48.518;9.124;2022-10-04T19:49:19;20.17;;;10.43;;
31734;SDS011;18313;48.518;9.124;2022-10-04T19:55:30;12.90;;;6.95;;
31734;SDS011;18313;48.518;9.124;2022-10-04T19:58:44;11.88;;;6.47;;
31734;SDS011;18313;48.518;9.124;2022-10-04T20:01:34;9.75;;;5.72;;
31734;SDS011;18313;48.518;9.124;2022-10-04T20:04:20;9.70;;;5.30;;
31734;SDS011;18313;48.518;9.124;2022-10-04T20:07:25;13.77;;;6.10;;
31734;SDS011;18313;48.518;9.124;2022-10-04T20:10:22;9.75;;;5.57;;
31734;SDS011;18313;48.518;9.124;2022-10-04T20:16:13;8.13;;;5.72;;
31734;SDS011;18313;48.518;9.124;2022-10-04T20:19:36;7.95;;;4.97;;
31734;SDS011;18313;48.518;9.124;2022-10-04T20:25:09;9.25;;;4.70;;
31734;SDS011;18313;48.518;9.124;2022-10-04T20:30:50;7.55;;;3.92;;
31734;SDS011;18313;48.518;9.124;2022-10-04T20:36:48;9.38;;;4.60;;
31734;SDS011;18313;48.518;9.124;2022-10-04T20:42:28;6.95;;;4.53;;
31734;SDS011;18313;48.518;9.124;2022-10-04T20:48:00;6.93;;;4.57;;
31734;SDS011;18313;48.518;9.124;2022-10-04T20:50:46;7.80;;;4.85;;
31734;SDS011;18313;48.518;9.124;2022-10-04T20:53:35;11.13;;;5.60;;
31734;SDS011;18313;48.518;9.124;2022-10-04T20:56:31;9.88;;;5.53;;
31734;SDS011;18313;48.518;9.124;2022-10-04T20:59:17;8.85;;;5.43;;
31734;SDS011;18313;48.518;9.124;2022-10-04T21:02:02;12.32;;;5.85;;
31734;SDS011;18313;48.518;9.124;2022-10-04T21:05:10;8.05;;;5.32;;
31734;SDS011;18313;48.518;9.124;2022-10-04T21:08:14;6.88;;;5.10;;
31734;SDS011;18313;48.518;9.124;2022-10-04T21:11:11;9.93;;;5.35;;
31734;SDS011;18313;48.518;9.124;2022-10-04T21:14:04;8.77;;;5.20;;
31734;SDS011;18313;48.518;9.124;2022-10-04T21:16:50;7.95;;;4.78;;
31734;SDS011;18313;48.518;9.124;2022-10-04T21:19:41;8.45;;;5.25;;
31734;SDS011;18313;48.518;9.124;2022-10-04T21:25:27;13.45;;;5.55;;
31734;SDS011;18313;48.518;9.124;2022-10-04T21:28:31;6.80;;;5.10;;
31734;SDS011;18313;48.518;9.124;2022-10-04T21:31:17;9.95;;;5.20;;
31734;SDS011;18313;48.518;9.124;2022-10-04T21:34:03;8.10;;;5.05;;
31734;SDS011;18313;48.518;9.124;2022-10-04T21:36:48;7.20;;;4.90;;
31734;SDS011;18313;48.518;9.124;2022-10-04T21:39:34;10.10;;;5.00;;
31734;SDS011;18313;48.518;9.124;2022-10-04T21:42:19;9.40;;;5.22;;
31734;SDS011;18313;48.518;9.124;2022-10-04T21:45:06;10.93;;;5.28;;
31734;SDS011;18313;48.518;9.124;2022-10-04T21:47:52;10.18;;;5.60;;
31734;SDS011;18313;48.518;9.124;2022-10-04T21:50:37;11.38;;;5.45;;
31734;SDS011;18313;48.518;9.124;2022-10-04T21:53:23;9.82;;;5.70;;
31734;SDS011;18313;48.518;9.124;2022-10-04T21:56:09;11.73;;;5.40;;
31734;SDS011;18313;48.518;9.124;2022-10-04T21:58:54;9.13;;;5.50;;
31734;SDS011;18313;48.518;9.124;2022-10-04T22:01:40;11.30;;;6.15;;
31734;SDS011;18313;48.518;9.124;2022-10-04T22:04:26;9.15;;;5.57;;
31734;SDS011;18313;48.518;9.124;2022-10-04T22:07:12;8.82;;;5.38;;
31734;SDS011;18313;48.518;9.124;2022-10-04T22:09:58;7.18;;;5.00;;
31734;SDS011;18313;48.518;9.124;2022-10-04T22:12:43;8.95;;;5.25;;
31734;SDS011;18313;48.518;9.124;2022-10-04T22:15:29;9.40;;;5.60;;
31734;SDS011;18313;48.518;9.124;2022-10-04T22:18:15;8.77;;;4.78;;
31734;SDS011;18313;48.518;9.124;2022-10-04T22:21:01;8.15;;;5.18;;
31734;SDS011;18313;48.518;9.124;2022-10-04T22:23:47;7.05;;;4.72;;
31734;SDS011;18313;48.518;9.124;2022-10-04T22:26:32;8.43;;;5.15;;
31734;SDS011;18313;48.518;9.124;2022-10-04T22:29:18;7.32;;;4.82;;
31734;SDS011;18313;48.518;9.124;2022-10-04T22:32:08;8.60;;;4.80;;
31734;SDS011;18313;48.518;9.124;2022-10-04T22:34:59;6.47;;;4.53;;
31734;SDS011;18313;48.518;9.124;2022-10-04T22:37:50;8.23;;;5.75;;
31734;SDS011;18313;48.518;9.124;2022-10-04T22:40:36;10.27;;;5.88;;
31734;SDS011;18313;48.518;9.124;2022-10-04T22:43:22;9.00;;;5.70;;
31734;SDS011;18313;48.518;9.124;2022-10-04T22:46:12;8.68;;;6.20;;
31734;SDS011;18313;48.518;9.124;2022-10-04T22:49:01;12.85;;;6.53;;
31734;SDS011;18313;48.518;9.124;2022-10-04T22:51:53;9.25;;;5.97;;
31734;SDS011;18313;48.518;9.124;2022-10-04T22:54:42;10.15;;;5.50;;
31734;SDS011;18313;48.518;9.124;2022-10-04T22:57:30;8.63;;;5.43;;
31734;SDS011;18313;48.518;9.124;2022-10-04T23:00:16;7.22;;;5.28;;
31734;SDS011;18313;48.518;9.124;2022-10-04T23:03:01;9.27;;;5.00;;
31734;SDS011;18313;48.518;9.124;2022-10-04T23:05:56;8.38;;;5.65;;
31734;SDS011;18313;48.518;9.124;2022-10-04T23:08:42;7.35;;;4.90;;
31734;SDS011;18313;48.518;9.124;2022-10-04T23:11:31;7.78;;;5.22;;
31734;SDS011;18313;48.518;9.124;2022-10-04T23:14:16;6.90;;;4.20;;
31734;SDS011;18313;48.518;9.124;2022-10-04T23:17:22;9.20;;;4.97;;
31734;SDS011;18313;48.518;9.124;2022-10-04T23:20:16;8.57;;;4.50;;
31734;SDS011;18313;48.518;9.124;2022-10-04T23:23:04;8.77;;;4.65;;
31734;SDS011;18313;48.518;9.124;2022-10-04T23:25:55;6.15;;;4.55;;
31734;SDS011;18313;48.518;9.124;2022-10-04T23:28:41;5.60;;;4.18;;
31734;SDS011;18313;48.518;9.124;2022-10-04T23:31:26;5.40;;;3.97;;
31734;SDS011;18313;48.518;9.124;2022-10-04T23:34:16;7.15;;;3.80;;
31734;SDS011;18313;48.518;9.124;2022-10-04T23:37:20;6.47;;;3.60;;
31734;SDS011;18313;48.518;9.124;2022-10-04T23:40:10;5.18;;;3.47;;
31734;SDS011;18313;48.518;9.124;2022-10-04T23:42:57;6.07;;;4.15;;
31734;SDS011;18313;48.518;9.124;2022-10-04T23:45:45;7.68;;;3.72;;
31734;SDS011;18313;48.518;9.124;2022-10-04T23:48:31;8.68;;;4.30;;
31734;SDS011;18313;48.518;9.124;2022-10-04T23:51:17;8.50;;;4.68;;
31734;SDS011;18313;48.518;9.124;2022-10-04T23:54:03;6.63;;;4.78;;
31734;SDS011;18313;48.518;9.124;2022-10-04T23:56:54;7.10;;;4.82;;
31734;SDS011;18313;48.518;9.124;2022-10-04T23:59:40;7.43;;;4.60;;
